createdAt,value
2023-05-14T00:02:17.609Z,14.91
2023-05-14T00:07:19.173Z,14.90
2023-05-14T00:12:20.537Z,15.07
2023-05-14T00:17:22.124Z,15.03
2023-05-14T00:22:23.529Z,15.06
2023-05-14T00:27:24.879Z,15.08
2023-05-14T00:32:26.413Z,15.08
2023-05-14T00:37:27.783Z,14.76
2023-05-14T00:42:29.209Z,14.47
2023-05-14T00:47:30.886Z,14.63
2023-05-14T00:52:32.509Z,14.31
2023-05-14T00:57:34.712Z,14.24
2023-05-14T01:02:36.373Z,14.19
2023-05-14T01:07:37.788Z,14.24
2023-05-14T01:12:52.257Z,14.27
2023-05-14T01:17:55.344Z,14.27
2023-05-14T01:22:56.705Z,14.20
2023-05-14T01:28:17.888Z,14.32
2023-05-14T01:33:21.603Z,14.10
2023-05-14T01:38:23.699Z,13.40
2023-05-14T01:43:25.943Z,13.90
2023-05-14T01:48:29.783Z,14.10
2023-05-14T01:53:31.136Z,13.99
2023-05-14T01:58:32.515Z,13.67
2023-05-14T02:03:33.898Z,13.81
2023-05-14T02:08:36.027Z,13.81
2023-05-14T02:13:38.059Z,14.05
2023-05-14T02:18:39.569Z,13.67
2023-05-14T02:23:42.232Z,13.60
2023-05-14T02:28:44.350Z,13.34
2023-05-14T02:33:47.644Z,13.64
2023-05-14T02:38:48.979Z,13.61
2023-05-14T02:43:50.378Z,13.50
2023-05-14T02:48:51.865Z,13.66
2023-05-14T02:53:53.366Z,13.58
2023-05-14T02:58:54.802Z,13.71
2023-05-14T03:03:56.749Z,13.53
2023-05-14T03:08:58.173Z,13.48
2023-05-14T03:13:59.646Z,13.49
2023-05-14T03:19:01.065Z,13.47
2023-05-14T03:24:02.485Z,13.29
2023-05-14T03:29:03.972Z,13.18
2023-05-14T03:34:05.615Z,12.87
2023-05-14T03:39:07.044Z,12.99
2023-05-14T03:44:10.259Z,12.80
2023-05-14T03:49:11.800Z,13.19
2023-05-14T03:54:13.483Z,12.96
2023-05-14T03:59:14.901Z,13.12
2023-05-14T04:04:16.401Z,13.00
2023-05-14T04:09:17.843Z,13.01
2023-05-14T04:14:19.228Z,13.05
2023-05-14T04:19:20.736Z,12.97
2023-05-14T04:24:22.158Z,13.01
2023-05-14T04:29:23.537Z,12.87
2023-05-14T04:34:24.905Z,13.14
2023-05-14T04:39:26.291Z,13.05
2023-05-14T04:44:27.676Z,12.96
2023-05-14T04:49:29.185Z,13.14
2023-05-14T04:54:30.863Z,13.33
2023-05-14T04:59:32.430Z,13.34
2023-05-14T05:04:33.787Z,13.74
2023-05-14T05:09:35.256Z,13.59
2023-05-14T05:14:36.614Z,13.61
2023-05-14T05:19:43.777Z,13.59
2023-05-14T05:24:46.715Z,13.68
2023-05-14T05:29:48.936Z,13.79
2023-05-14T05:34:51.896Z,13.72
2023-05-14T05:39:53.920Z,13.78
2023-05-14T05:44:55.404Z,14.04
2023-05-14T05:49:56.855Z,14.21
2023-05-14T05:54:58.343Z,14.18
2023-05-14T05:59:59.768Z,14.40
2023-05-14T06:05:01.227Z,14.47
2023-05-14T06:10:03.191Z,14.63
2023-05-14T06:15:04.749Z,14.71
2023-05-14T06:20:07.820Z,14.88
2023-05-14T06:25:09.529Z,15.10
2023-05-14T06:30:11.259Z,15.07
2023-05-14T06:35:12.652Z,15.20
2023-05-14T06:40:15.697Z,15.17
2023-05-14T06:45:17.221Z,15.47
2023-05-14T06:50:18.620Z,15.55
2023-05-14T06:55:20.200Z,15.74
2023-05-14T07:00:22.050Z,15.84
2023-05-14T07:05:24.174Z,15.96
2023-05-14T07:10:25.830Z,16.03
2023-05-14T07:15:27.722Z,16.21
2023-05-14T07:20:29.139Z,16.43
2023-05-14T07:25:30.568Z,16.62
2023-05-14T07:30:31.965Z,16.58
2023-05-14T07:35:33.360Z,16.82
2023-05-14T07:40:34.810Z,17.11
2023-05-14T07:45:36.865Z,17.04
2023-05-14T07:50:38.327Z,16.99
2023-05-14T07:55:40.024Z,17.10
2023-05-14T08:00:41.505Z,17.50
2023-05-14T08:05:42.880Z,17.75
2023-05-14T08:10:44.417Z,17.87
2023-05-14T08:15:45.903Z,18.02
2023-05-14T08:20:47.360Z,18.34
2023-05-14T08:25:48.791Z,18.54
2023-05-14T08:30:50.376Z,18.36
2023-05-14T08:35:53.073Z,18.53
2023-05-14T08:40:58.581Z,18.27
2023-05-14T08:46:01.936Z,18.51
2023-05-14T08:51:03.430Z,18.66
2023-05-14T08:56:05.061Z,18.35
2023-05-14T09:01:06.641Z,18.62
2023-05-14T09:06:08.833Z,18.75
2023-05-14T09:11:10.260Z,19.05
2023-05-14T09:16:11.800Z,19.19
2023-05-14T09:21:14.048Z,19.45
2023-05-14T09:26:16.861Z,19.62
2023-05-14T09:31:18.259Z,19.94
2023-05-14T09:36:19.748Z,19.94
2023-05-14T09:41:22.909Z,20.05
2023-05-14T09:46:27.221Z,20.13
2023-05-14T09:51:31.448Z,20.25
2023-05-14T09:56:33.453Z,20.44
2023-05-14T10:01:35.132Z,20.59
2023-05-14T10:06:37.586Z,20.72
2023-05-14T10:11:40.739Z,20.90
2023-05-14T10:16:46.528Z,20.71
2023-05-14T10:21:50.383Z,21.06
2023-05-14T10:26:52.340Z,21.24
2023-05-14T10:31:54.548Z,21.22
2023-05-14T10:36:58.852Z,21.79
2023-05-14T10:42:00.342Z,21.67
2023-05-14T10:47:02.426Z,21.73
2023-05-14T10:52:03.903Z,21.80
2023-05-14T10:57:11.047Z,21.73
2023-05-14T11:02:19.468Z,22.06
2023-05-14T11:07:23.905Z,22.34
2023-05-14T11:12:26.119Z,22.23
2023-05-14T11:17:28.545Z,21.73
2023-05-14T11:22:30.044Z,21.35
2023-05-14T11:27:32.209Z,21.11
2023-05-14T11:32:33.865Z,21.22
2023-05-14T11:37:35.585Z,21.20
2023-05-14T11:42:37.214Z,21.19
2023-05-14T11:47:38.596Z,21.01
2023-05-14T11:52:40.583Z,20.89
2023-05-14T11:57:42.145Z,20.78
2023-05-14T12:02:43.643Z,20.77
2023-05-14T12:07:45.630Z,20.71
2023-05-14T12:12:47.628Z,20.76
2023-05-14T12:17:50.447Z,20.90
2023-05-14T12:22:51.932Z,20.91
2023-05-14T12:27:53.278Z,20.87
2023-05-14T12:32:54.766Z,20.81
2023-05-14T12:37:56.177Z,20.86
2023-05-14T12:42:57.685Z,20.95
2023-05-14T12:47:59.147Z,21.32
2023-05-14T12:53:00.525Z,21.70
2023-05-14T12:58:01.932Z,21.87
2023-05-14T13:03:03.316Z,21.96
2023-05-14T13:08:04.745Z,21.86
2023-05-14T13:13:06.107Z,22.04
2023-05-14T13:18:07.548Z,22.17
2023-05-14T13:23:08.923Z,22.61
2023-05-14T13:28:10.377Z,22.46
2023-05-14T13:33:11.766Z,22.75
2023-05-14T13:38:13.185Z,22.86
2023-05-14T13:43:16.776Z,22.59
2023-05-14T13:48:18.145Z,23.00
2023-05-14T13:53:20.286Z,22.91
2023-05-14T13:58:22.253Z,22.95
2023-05-14T14:03:23.735Z,22.78
2023-05-14T14:08:25.189Z,22.77
2023-05-14T14:13:27.676Z,22.93
2023-05-14T14:18:29.095Z,22.86
2023-05-14T14:23:30.539Z,22.92
2023-05-14T14:28:32.350Z,22.81
2023-05-14T14:33:33.770Z,22.77
2023-05-14T14:38:35.204Z,22.60
2023-05-14T14:43:37.667Z,22.70
2023-05-14T14:48:39.053Z,22.61
2023-05-14T14:53:40.564Z,22.64
2023-05-14T14:58:42.235Z,22.57
2023-05-14T15:03:45.492Z,22.35
2023-05-14T15:08:47.097Z,22.38
2023-05-14T15:13:48.725Z,22.16
2023-05-14T15:18:50.196Z,22.26
2023-05-14T15:23:51.585Z,22.34
2023-05-14T15:28:53.003Z,22.56
2023-05-14T15:33:55.962Z,22.26
2023-05-14T15:38:57.376Z,22.23
2023-05-14T15:43:59.068Z,22.14
2023-05-14T15:49:00.510Z,22.03
2023-05-14T15:54:01.942Z,21.90
2023-05-14T15:59:03.307Z,22.01
2023-05-14T16:04:04.766Z,22.04
2023-05-14T16:09:06.259Z,21.83
2023-05-14T16:14:07.600Z,21.98
2023-05-14T16:19:09.139Z,21.87
2023-05-14T16:24:12.485Z,21.62
2023-05-14T16:29:13.895Z,21.75
2023-05-14T16:34:15.321Z,21.73
2023-05-14T16:39:17.348Z,21.69
2023-05-14T16:44:18.693Z,21.56
2023-05-14T16:49:22.288Z,21.76
2023-05-14T16:54:23.773Z,21.76
2023-05-14T16:59:25.396Z,21.48
2023-05-14T17:04:26.838Z,21.40
2023-05-14T17:09:28.575Z,21.24
2023-05-14T17:14:29.974Z,21.14
2023-05-14T17:19:31.309Z,21.15
2023-05-14T17:24:32.718Z,21.06
2023-05-14T17:29:34.273Z,21.01
2023-05-14T17:34:35.672Z,20.77
2023-05-14T17:39:37.278Z,20.75
2023-05-14T17:44:38.633Z,20.73
2023-05-14T17:49:39.971Z,20.77
2023-05-14T17:54:41.351Z,20.83
2023-05-14T17:59:42.734Z,20.78
2023-05-14T18:04:44.151Z,20.62
2023-05-14T18:09:45.585Z,20.59
2023-05-14T18:14:47.117Z,20.41
2023-05-14T18:19:48.553Z,20.34
2023-05-14T18:24:49.919Z,20.41
2023-05-14T18:29:51.684Z,20.40
2023-05-14T18:34:53.015Z,20.15
2023-05-14T18:39:54.817Z,20.06
2023-05-14T18:44:56.248Z,20.02
2023-05-14T18:50:00.225Z,19.92
2023-05-14T18:55:01.730Z,19.82
2023-05-14T19:00:04.606Z,19.75
2023-05-14T19:05:06.254Z,19.67
2023-05-14T19:10:08.033Z,19.59
2023-05-14T19:15:10.026Z,19.57
2023-05-14T19:20:11.773Z,19.46
2023-05-14T19:25:13.288Z,19.35
2023-05-14T19:30:14.871Z,19.41
2023-05-14T19:35:16.417Z,19.25
2023-05-14T19:40:17.797Z,19.20
2023-05-14T19:45:19.199Z,19.29
2023-05-14T19:50:20.608Z,19.24
2023-05-14T19:55:22.042Z,19.04
2023-05-14T20:00:23.957Z,19.12
2023-05-14T20:05:26.154Z,19.19
2023-05-14T20:10:28.062Z,19.32
2023-05-14T20:15:29.843Z,19.05
2023-05-14T20:20:33.153Z,18.94
2023-05-14T20:25:35.006Z,18.94
2023-05-14T20:30:36.496Z,18.93
2023-05-14T20:35:37.981Z,18.85
2023-05-14T20:40:39.760Z,18.80
2023-05-14T20:45:41.578Z,18.55
2023-05-14T20:50:43.225Z,18.69
2023-05-14T20:55:47.291Z,18.51
2023-05-14T21:00:48.659Z,18.57
2023-05-14T21:05:50.042Z,18.63
2023-05-14T21:10:51.394Z,18.50
2023-05-14T21:15:52.803Z,18.53
2023-05-14T21:20:59.654Z,18.52
2023-05-14T21:26:02.195Z,18.41
2023-05-14T21:31:03.585Z,18.23
2023-05-14T21:36:05.187Z,18.21
2023-05-14T21:41:06.559Z,18.00
2023-05-14T21:46:08.492Z,17.88
2023-05-14T21:51:10.035Z,17.87
2023-05-14T21:56:11.423Z,17.78
2023-05-14T22:01:12.870Z,17.77
2023-05-14T22:06:14.329Z,17.53
2023-05-14T22:11:15.769Z,17.61
2023-05-14T22:16:17.245Z,17.57
2023-05-14T22:21:18.821Z,17.65
2023-05-14T22:26:21.480Z,17.42
2023-05-14T22:31:22.892Z,17.38
2023-05-14T22:36:24.344Z,17.16
2023-05-14T22:41:26.615Z,17.25
2023-05-14T22:46:28.094Z,17.10
2023-05-14T22:51:29.498Z,17.11
2023-05-14T22:56:30.920Z,17.01
2023-05-14T23:01:32.410Z,16.87
2023-05-14T23:06:33.818Z,16.79
2023-05-14T23:11:35.288Z,16.93
2023-05-14T23:16:36.689Z,16.79
2023-05-14T23:21:38.088Z,16.78
2023-05-14T23:26:39.534Z,16.69
2023-05-14T23:31:41.245Z,16.72
2023-05-14T23:36:42.706Z,16.68
2023-05-14T23:41:44.143Z,16.65
2023-05-14T23:46:45.685Z,16.52
2023-05-14T23:51:47.069Z,16.48
2023-05-14T23:56:48.645Z,16.47
